Portada
METAR-TAF:

METAR-TAF

Aeroports :

Scilly, Anglaterra

latitud: 49-55N, longitud: 006-18W, altitud: 31 m

Observació

L'informe es va fer fa 33 minuts, a les 08:20 UTC
Vent 11 kt del Oest/Sud-Oest
Temperatura 17°C
Humitat 88%
Pressió 1025 hPa
Visibilitat 10 km o més
Núvols disperses a una alçada de 1500 ft

METAR: EGHE 220820Z 24011KT 9999 SCT015 17/15 Q1025

Hora: 09:53 (08:53 UTC)

Pronòstic

L'informe es va fer fa 53 minuts, a les 08:00 UTC
Pronòstic vàlid del 22 a les 09 UTC al 22 a les 18 UTC
Vent 14 kt del Sud-Oest
Visibilitat 10 km o més
Escasses núvols a una alçada de 1000 ft
Núvols disperses a una alçada de 4000 ft
Probabilitat 30% :
Temporalment
l' 22 a les 09 UTC al 22 a les 18 UTC
Cel ennuvolat a una alçada de 1000 ft

TAF: EGHE 220800Z 2209/2218 23014KT 9999 FEW010 SCT040 PROB30 TEMPO 2209/2218 BKN010

Observacions i pronòstics meteorològics de més de 4000 aeroports (METAR i TAF).

Les estacions disponibles són els punts grocs i vermells al mapa.

Posi el ratolí al punt desitjat per veure el nom de l'estació.

Feu clic per veure les observacions i els pronòstics meteorològics.

Per canviar el mapa: feu clic els botons verds amb una creu de color negre per apropar; al botó verd amb un guió per allunyar la imatge; o en les fletxes verdes per a mapes adjacents.


METAR-TAF: